Airfield :







YOU CAN JOIN US ON...

 
LOGIN :

Register | Disclaimer

   EN    FR    IT 

 









Legend :    VFR   Marginal VFR   IFR   Intensive IFR   Very Intensive IFR
Visi :
Ceiling :
>= 8 km
>= 3000ft
5 to 8 km
1000 to 3000 ft
1500m to 5 km
500 to 1000 ft
800 to 1500m
200 to 500 ft
< 800m
< 200 ft
Symbols :   Thunderstorms  Fog  Heavy snow  Heavy precipitations  Wind > 20 kt






- Airport Elevation : 477 ft
- IATA code : YHZ


CYHZ - Halifax Stanfield Int.

CURRENT METAR :
  • 090700Z 16008KT 1/4SM R23/1600V2000FT/N R14/2200V2600FT/N FG VV002 18/18 A2984 RMK FG8 VIS VRB 1/8-3/8 SLP108 DENSITY ALT 1100FT

EXPIRED METARs :
  • 090600Z 15006KT 1/4SM R23/2200V2800FT/N R14/3000V4000FT/U FG VV002 18/18 A2987 RMK FG8 SLP116 DENSITY ALT 1000FT
  • 090500Z 14008KT 1/4SM R23/2800V3000FT/N R14/4000V5000FT/U FG VV002 18/18 A2988 RMK FG8 VIS VRB 1/8-3/8 SLP121 DENSITY ALT 1000FT

TAF TAF CYHZ
Valid from the 09 at 06:00 until the 10 at 06:00 UTC


090540Z 0906/1006 15008G18KT 1/4SM -DZ FG OVC003
TEMPO 0906/0912 6SM BR OVC005
BECMG 0910/0912 21010G20KT
FM091200 21010G20KT 4SM -SHRA -DZ BR OVC006
TEMPO 0912/0914 6SM BR
FM091400 22012G22KT 3SM SHRA BR OVC008
TEMPO 0914/0917 6SM -RA BR
FM091700 24012G22KT 4SM -DZ BR OVC008
BECMG 0917/0919 31012KT OVC015
FM100100 36008KT P6SM BKN015 OVC030
BECMG 1001/1003 03005KT RMK NXT FCST BY 090900Z
CZQM FIR / North America



MET'MAP, your aeronautical weather chart ! - Copyright ORBIFLY December 2007 - Disclaimer

ORBIFLY MET'MAP TEAM :

Programming & Development : Alexandra Zaïnal
Original concept : Baudouin d'Aumeries
Technical & hardware support : Manuel Goepfert
Assistance : Marc-Olivier Méhu




SOURCES & CREDITS :

   NOAA